Time;durP1;ratioP1;P1;durP2;ratioP2;P2;SDS_P1;SDS_P2;PMS_P1;PMS_P2;Temp;Humidity;BMP_temperature;BMP_pressure;BME280_temperature;BME280_humidity;BME280_pressure;Samples;Min_cycle;Max_cycle;Signal;HPM_P1;HPM_P2
2023/08/20 00:01:03;;;;;;;2.25;1.80;;;;;;;29.14;48.29;102000.44;4910758;28;97572;-80
2023/08/20 00:03:30;;;;;;;1.92;1.73;;;;;;;29.14;48.32;101991.28;4910119;28;96697;-80
2023/08/20 00:05:57;;;;;;;3.65;1.85;;;;;;;29.14;48.22;101994.91;4910835;28;96766;-80
2023/08/20 00:08:24;;;;;;;2.72;1.80;;;;;;;29.12;47.97;101980.44;4909236;28;96731;-80
2023/08/20 00:10:50;;;;;;;2.58;1.88;;;;;;;29.13;48.21;101984.91;4909366;28;97839;-80
2023/08/20 00:13:17;;;;;;;1.73;1.60;;;;;;;29.13;48.13;101987.66;4913451;28;96823;-80
2023/08/20 00:15:44;;;;;;;2.08;1.88;;;;;;;29.13;48.13;101981.28;4909809;28;96547;-80
2023/08/20 00:18:11;;;;;;;2.88;1.70;;;;;;;29.11;47.97;101981.47;4903092;28;96929;-80
2023/08/20 00:20:38;;;;;;;1.77;1.60;;;;;;;29.12;48.09;101979.56;4908081;28;97847;-80
2023/08/20 00:23:05;;;;;;;2.05;1.73;;;;;;;29.12;47.97;101990.63;4903831;28;96864;-79
2023/08/20 00:25:31;;;;;;;2.53;2.28;;;;;;;29.11;48.00;101987.00;4906043;28;96823;-82
2023/08/20 00:27:58;;;;;;;1.75;1.50;;;;;;;29.10;48.21;101985.31;4906292;28;97212;-80
2023/08/20 00:30:24;;;;;;;2.05;1.80;;;;;;;29.10;48.25;101986.16;4908399;28;99267;-79
2023/08/20 00:32:51;;;;;;;2.28;1.77;;;;;;;29.10;48.32;101997.22;4908640;28;97060;-80
2023/08/20 00:35:18;;;;;;;2.08;1.75;;;;;;;29.10;48.15;101997.22;4892396;28;96878;-80
2023/08/20 00:37:45;;;;;;;2.30;1.90;;;;;;;29.10;47.86;102002.75;4908956;28;96757;-81
2023/08/20 00:40:12;;;;;;;3.08;2.10;;;;;;;29.09;48.17;102001.06;4909505;28;96994;-80
2023/08/20 00:42:38;;;;;;;1.65;1.40;;;;;;;29.11;48.00;102003.63;4892427;28;100108;-80
2023/08/20 00:45:07;;;;;;;1.77;1.50;;;;;;;29.10;47.91;101996.38;4890960;28;97417;-80
2023/08/20 00:47:35;;;;;;;1.70;1.60;;;;;;;29.10;47.95;101988.06;4892755;28;97662;-80
2023/08/20 00:50:09;;;;;;;2.00;1.80;;;;;;;29.10;48.20;101990.84;4909584;28;100601;-80
2023/08/20 00:52:36;;;;;;;2.75;1.75;;;;;;;29.08;48.03;102002.09;4908664;28;97504;-80
2023/08/20 00:55:10;;;;;;;2.28;1.70;;;;;;;29.10;48.21;102007.44;4893427;28;96897;-80
2023/08/20 00:57:37;;;;;;;2.00;1.80;;;;;;;29.08;48.19;102010.41;4908471;28;96827;-80
2023/08/20 01:00:10;;;;;;;2.15;1.90;;;;;;;29.09;48.22;102014.03;4910029;28;98623;-82
2023/08/20 01:02:37;;;;;;;2.10;1.90;;;;;;;29.09;48.21;102016.78;4911107;28;97275;-80
2023/08/20 01:05:08;;;;;;;2.03;1.45;;;;;;;29.08;47.84;102012.31;4912204;28;97426;-80
2023/08/20 01:07:48;;;;;;;2.05;1.85;;;;;;;29.08;48.13;102018.72;4911004;28;96704;-80
2023/08/20 01:10:30;;;;;;;1.77;1.65;;;;;;;29.08;48.25;102018.72;4911270;28;97695;-80
2023/08/20 01:12:57;;;;;;;1.65;1.55;;;;;;;29.08;47.84;102026.16;4891816;28;98254;-81
2023/08/20 01:15:24;;;;;;;2.20;1.52;;;;;;;29.07;48.26;102028.06;4903025;28;96821;-81
2023/08/20 01:17:51;;;;;;;1.70;1.50;;;;;;;29.07;48.18;102030.81;4904905;28;99712;-80
2023/08/20 01:20:18;;;;;;;2.70;2.10;;;;;;;29.07;47.92;102030.81;4906907;28;98256;-80
2023/08/20 01:23:05;;;;;;;2.65;1.73;;;;;;;29.08;48.08;102042.75;4910763;28;97545;-80
2023/08/20 01:26:21;;;;;;;2.03;1.60;;;;;;;29.07;47.98;102050.19;4913351;28;97351;-80
2023/08/20 01:28:48;;;;;;;2.30;1.70;;;;;;;29.06;48.28;102056.78;4910117;28;97006;-80
2023/08/20 01:31:18;;;;;;;2.17;1.65;;;;;;;29.07;48.19;102057.63;4896783;28;99240;-80
2023/08/20 01:33:45;;;;;;;1.92;1.50;;;;;;;29.06;48.11;102059.53;4914022;28;96730;-80
2023/08/20 01:36:11;;;;;;;2.60;1.75;;;;;;;29.06;48.11;102059.53;4912687;28;97423;-81
2023/08/20 01:38:40;;;;;;;2.72;1.70;;;;;;;29.06;48.02;102059.53;4893826;28;97339;-80
2023/08/20 01:41:07;;;;;;;2.15;1.60;;;;;;;29.06;48.04;102064.22;4912012;28;99286;-82
2023/08/20 01:43:34;;;;;;;2.20;1.70;;;;;;;29.07;48.17;102071.47;4914403;28;96768;-80
2023/08/20 01:46:00;;;;;;;1.95;1.80;;;;;;;29.06;47.86;102067.00;4896334;28;96656;-80
2023/08/20 01:48:26;;;;;;;1.70;1.50;;;;;;;29.05;48.15;102057.84;4914881;28;96845;-81
2023/08/20 01:50:53;;;;;;;2.35;1.60;;;;;;;29.06;48.09;102064.22;4911870;28;99639;-80
2023/08/20 01:53:20;;;;;;;1.70;1.60;;;;;;;29.06;47.87;102067.84;4914882;28;96992;-80
2023/08/20 01:55:46;;;;;;;2.03;1.55;;;;;;;29.06;48.03;102067.00;4913642;28;97091;-81
2023/08/20 01:58:13;;;;;;;1.65;1.55;;;;;;;29.06;47.92;102073.38;4914043;28;97069;-80
2023/08/20 02:00:40;;;;;;;1.98;1.60;;;;;;;29.06;48.10;102064.22;4909117;28;99345;-80
2023/08/20 02:03:07;;;;;;;1.80;1.65;;;;;;;29.07;47.90;102065.94;4915757;28;96930;-82
2023/08/20 02:05:33;;;;;;;2.08;1.67;;;;;;;29.07;48.16;102065.94;4908967;28;96837;-80
2023/08/20 02:08:00;;;;;;;1.73;1.63;;;;;;;29.05;47.73;102068.91;4911537;28;96961;-80
2023/08/20 02:10:26;;;;;;;2.25;1.80;;;;;;;29.06;47.70;102070.63;4914394;28;98563;-80
2023/08/20 02:12:53;;;;;;;1.58;1.33;;;;;;;29.05;47.78;102060.59;4914289;28;98228;-82
2023/08/20 02:15:19;;;;;;;1.83;1.50;;;;;;;29.04;47.63;102061.66;4913707;28;96967;-80
2023/08/20 02:17:46;;;;;;;2.63;1.80;;;;;;;29.05;48.03;102066.13;4906157;28;96815;-80
2023/08/20 02:20:14;;;;;;;1.98;1.70;;;;;;;29.05;48.00;102085.50;4913200;28;98064;-80
2023/08/20 02:22:40;;;;;;;1.90;1.38;;;;;;;29.05;47.80;102084.63;4909114;28;98473;-80
2023/08/20 02:25:08;;;;;;;1.92;1.48;;;;;;;29.05;47.67;102079.09;4911376;28;97310;-81
2023/08/20 02:27:34;;;;;;;2.53;1.70;;;;;;;29.04;48.04;102083.78;4913227;28;96850;-80
2023/08/20 02:30:02;;;;;;;2.00;1.83;;;;;;;29.04;48.01;102075.50;4915709;28;97751;-80
2023/08/20 02:32:28;;;;;;;1.85;1.40;;;;;;;29.04;47.70;102077.41;4908532;28;99201;-80
2023/08/20 02:34:57;;;;;;;1.80;1.70;;;;;;;29.03;47.59;102071.00;4913649;28;96761;-80
2023/08/20 02:37:25;;;;;;;1.75;1.45;;;;;;;29.04;47.77;102060.81;4914620;28;96814;-80
2023/08/20 02:39:51;;;;;;;1.80;1.52;;;;;;;29.03;47.93;102068.25;4914009;28;100812;-82
2023/08/20 02:42:18;;;;;;;2.65;1.85;;;;;;;29.04;47.88;102060.81;4915216;28;99225;-80
2023/08/20 02:44:44;;;;;;;1.80;1.50;;;;;;;29.04;47.82;102069.97;4897088;28;97074;-80
2023/08/20 02:47:11;;;;;;;1.85;1.65;;;;;;;29.03;47.97;102071.00;4912042;28;96730;-80
2023/08/20 02:49:37;;;;;;;1.83;1.63;;;;;;;29.04;47.83;102072.72;4910412;28;96816;-81
2023/08/20 02:52:04;;;;;;;2.95;1.50;;;;;;;29.03;47.86;102072.94;4912681;28;98086;-80
2023/08/20 02:54:32;;;;;;;1.52;1.40;;;;;;;29.02;47.82;102072.06;4912672;28;96761;-80
2023/08/20 02:56:59;;;;;;;1.60;1.50;;;;;;;29.03;48.04;102087.59;4913127;28;96785;-80
2023/08/20 02:59:25;;;;;;;1.85;1.48;;;;;;;29.03;47.91;102081.22;4913311;28;98099;-81
2023/08/20 03:01:52;;;;;;;1.70;1.50;;;;;;;29.03;47.70;102071.00;4910511;28;97509;-80
2023/08/20 03:04:19;;;;;;;2.97;1.52;;;;;;;29.03;47.91;102071.00;4897339;28;96844;-82
2023/08/20 03:06:45;;;;;;;1.70;1.52;;;;;;;29.03;47.81;102053.56;4896632;28;96704;-80
2023/08/20 03:09:12;;;;;;;1.63;1.50;;;;;;;29.03;47.71;102065.47;4911638;28;96906;-80
2023/08/20 03:11:38;;;;;;;1.60;1.40;;;;;;;29.03;47.36;102059.09;4909042;28;96913;-80
2023/08/20 03:14:05;;;;;;;1.90;1.52;;;;;;;29.03;47.75;102054.41;4896150;28;96842;-80
2023/08/20 03:16:32;;;;;;;2.03;1.55;;;;;;;29.02;47.77;102052.72;4892798;28;96738;-80
2023/08/20 03:18:58;;;;;;;1.60;1.50;;;;;;;29.01;47.75;102051.00;4905556;28;97009;-80
2023/08/20 03:21:25;;;;;;;1.67;1.50;;;;;;;29.01;47.58;102053.75;4911335;28;97376;-80
2023/08/20 03:23:52;;;;;;;1.85;1.50;;;;;;;29.01;47.71;102050.16;4911185;28;97610;-80
2023/08/20 03:26:18;;;;;;;2.35;1.35;;;;;;;29.01;47.96;102048.22;4911493;28;96799;-81
2023/08/20 03:28:45;;;;;;;2.15;1.70;;;;;;;29.01;47.85;102055.69;4895617;28;100541;-80
2023/08/20 03:31:11;;;;;;;1.80;1.50;;;;;;;29.00;47.84;102054.81;4909646;28;100618;-80
2023/08/20 03:33:41;;;;;;;1.67;1.33;;;;;;;29.01;48.00;102055.69;4891543;28;96754;-80
2023/08/20 03:36:07;;;;;;;1.73;1.60;;;;;;;29.01;47.59;102058.44;4892391;28;98534;-80
2023/08/20 03:38:34;;;;;;;1.67;1.40;;;;;;;29.01;47.87;102050.16;4896008;28;99081;-80
2023/08/20 03:41:00;;;;;;;1.30;1.15;;;;;;;29.00;47.62;102052.06;4912168;28;98867;-80
2023/08/20 03:43:27;;;;;;;2.50;1.30;;;;;;;29.00;47.72;102053.97;4888339;28;96704;-80
2023/08/20 03:45:53;;;;;;;1.67;1.50;;;;;;;29.00;47.55;102060.34;4908485;28;97000;-80
2023/08/20 03:48:21;;;;;;;1.70;1.48;;;;;;;28.99;47.77;102053.13;4908469;28;98165;-80
2023/08/20 03:50:47;;;;;;;1.83;1.33;;;;;;;28.99;47.77;102055.03;4891145;28;97670;-80
2023/08/20 03:53:15;;;;;;;1.60;1.40;;;;;;;28.99;48.13;102058.66;4912653;28;96788;-80
2023/08/20 03:55:47;;;;;;;2.60;1.58;;;;;;;29.01;47.90;102063.97;4911813;28;96933;-80
2023/08/20 03:58:14;;;;;;;1.65;1.50;;;;;;;28.99;47.43;102064.19;4906551;28;96904;-80
2023/08/20 04:00:41;;;;;;;1.42;1.20;;;;;;;28.98;47.86;102067.97;4896250;28;99048;-80
2023/08/20 04:03:07;;;;;;;1.50;1.40;;;;;;;28.98;47.85;102067.09;4906475;28;97106;-80
2023/08/20 04:05:38;;;;;;;2.10;1.65;;;;;;;28.98;47.95;102065.19;4899664;28;96799;-80
2023/08/20 04:08:05;;;;;;;1.83;1.40;;;;;;;28.97;47.58;102070.94;4911056;28;99130;-81
2023/08/20 04:10:32;;;;;;;2.17;1.48;;;;;;;28.97;47.81;102071.78;4898814;28;97349;-79
2023/08/20 04:12:59;;;;;;;1.50;1.40;;;;;;;28.97;47.86;102070.94;4911370;28;96809;-80
2023/08/20 04:15:25;;;;;;;1.90;1.52;;;;;;;28.96;48.05;102061.78;4911357;28;96901;-80
2023/08/20 04:17:52;;;;;;;1.60;1.40;;;;;;;28.97;47.56;102073.69;4887764;28;98667;-80
2023/08/20 04:20:19;;;;;;;1.40;1.30;;;;;;;28.96;47.93;102074.75;4908451;28;98889;-80
2023/08/20 04:22:46;;;;;;;1.48;1.27;;;;;;;28.96;47.80;102072.00;4910635;28;97278;-80
2023/08/20 04:25:12;;;;;;;1.63;1.50;;;;;;;28.95;47.64;102061.97;4909652;28;96988;-80
2023/08/20 04:27:39;;;;;;;1.80;1.50;;;;;;;28.95;47.80;102073.91;4900513;28;99730;-80
2023/08/20 04:30:07;;;;;;;2.20;1.50;;;;;;;28.95;47.71;102076.66;4903765;28;99072;-80
2023/08/20 04:32:34;;;;;;;1.42;1.30;;;;;;;28.94;47.85;102077.72;4911245;28;96668;-80
2023/08/20 04:35:00;;;;;;;1.67;1.50;;;;;;;28.95;47.57;102081.34;4906551;28;96983;-80
2023/08/20 04:37:27;;;;;;;2.58;1.42;;;;;;;28.95;47.70;102084.09;4889513;28;99106;-81
2023/08/20 04:39:56;;;;;;;1.75;1.42;;;;;;;28.95;47.83;102086.88;4904192;28;98940;-80
2023/08/20 04:42:23;;;;;;;1.98;1.40;;;;;;;28.93;47.79;102083.44;4911780;28;96856;-80
2023/08/20 04:44:50;;;;;;;1.52;1.38;;;;;;;28.93;47.81;102091.75;4893331;28;96851;-81
2023/08/20 04:47:16;;;;;;;1.52;1.30;;;;;;;28.92;47.78;102090.03;4908902;28;97595;-80
2023/08/20 04:49:43;;;;;;;1.70;1.42;;;;;;;28.94;47.51;102093.47;4907755;28;98758;-80
2023/08/20 04:52:10;;;;;;;1.60;1.45;;;;;;;28.92;47.66;102090.03;4905727;28;97257;-80
2023/08/20 04:54:36;;;;;;;1.45;1.20;;;;;;;28.92;47.58;102090.03;4907550;28;96869;-80
2023/08/20 04:57:03;;;;;;;3.05;1.55;;;;;;;28.91;47.66;102089.19;4909541;28;100678;-80
2023/08/20 04:59:30;;;;;;;1.65;1.42;;;;;;;28.91;47.65;102100.25;4909548;28;98987;-81
2023/08/20 05:02:02;;;;;;;1.33;1.23;;;;;;;28.91;47.79;102096.63;4910513;28;96751;-80
2023/08/20 05:04:58;;;;;;;1.38;1.25;;;;;;;28.90;47.67;102106.81;4904825;28;98376;-81
2023/08/20 05:07:24;;;;;;;1.52;1.42;;;;;;;28.91;47.43;102103.00;4910663;28;99635;-80
2023/08/20 05:09:51;;;;;;;1.23;1.05;;;;;;;28.91;47.53;102103.00;4908980;28;99142;-80
2023/08/20 05:12:18;;;;;;;1.75;1.40;;;;;;;28.90;47.78;102098.53;4911094;28;96746;-80
2023/08/20 05:14:44;;;;;;;1.52;1.27;;;;;;;28.91;47.42;102104.91;4910658;28;96886;-80
2023/08/20 05:17:11;;;;;;;1.50;1.40;;;;;;;28.91;48.27;102097.47;4907034;28;100177;-80
2023/08/20 05:19:38;;;;;;;1.65;1.50;;;;;;;28.91;47.82;102097.47;4906674;28;97498;-80
2023/08/20 05:22:05;;;;;;;1.38;1.27;;;;;;;28.91;47.32;102094.72;4904891;28;96832;-80
2023/08/20 05:24:34;;;;;;;1.33;1.23;;;;;;;28.92;47.45;102101.94;4910262;28;97258;-80
2023/08/20 05:27:16;;;;;;;1.55;1.40;;;;;;;28.94;47.42;102107.28;4903805;28;97866;-80
2023/08/20 05:29:46;;;;;;;1.42;1.27;;;;;;;28.92;47.42;102103.88;4902895;28;99498;-81
2023/08/20 05:32:16;;;;;;;1.60;1.30;;;;;;;28.92;47.91;102107.47;4910071;28;96845;-80
2023/08/20 05:34:42;;;;;;;1.60;1.40;;;;;;;28.93;47.82;102108.34;4913385;28;96906;-83
2023/08/20 05:37:09;;;;;;;2.35;1.50;;;;;;;28.93;47.45;102109.19;4924446;28;99299;-80
2023/08/20 05:39:38;;;;;;;2.40;1.20;;;;;;;28.95;47.34;102120.06;4909760;28;100269;-80
2023/08/20 05:42:05;;;;;;;1.38;1.20;;;;;;;28.95;47.47;102128.34;4892079;28;96648;-80
2023/08/20 05:44:32;;;;;;;2.25;1.30;;;;;;;28.94;47.75;102130.25;4905541;28;97345;-80
2023/08/20 05:47:00;;;;;;;1.45;1.20;;;;;;;28.95;47.79;102133.88;4906384;28;96792;-80
2023/08/20 05:49:27;;;;;;;1.42;1.30;;;;;;;28.95;47.27;102129.22;4900868;28;97235;-80
2023/08/20 05:51:56;;;;;;;1.83;1.45;;;;;;;28.95;47.69;102122.81;4891687;28;97252;-83
2023/08/20 05:54:23;;;;;;;1.40;1.30;;;;;;;28.95;47.44;102120.91;4905923;28;97868;-80
2023/08/20 05:56:52;;;;;;;1.55;1.15;;;;;;;28.95;47.50;102126.44;4905510;28;96704;-81
2023/08/20 05:59:19;;;;;;;1.80;1.40;;;;;;;28.96;47.72;102130.06;4912749;28;96482;-80
2023/08/20 06:01:46;;;;;;;1.92;1.50;;;;;;;28.95;47.55;102129.22;4895507;28;96862;-79
2023/08/20 06:04:13;;;;;;;2.10;1.30;;;;;;;28.97;47.43;102131.78;4907323;28;96951;-80
2023/08/20 06:06:40;;;;;;;1.33;1.15;;;;;;;28.96;47.47;102132.84;4907208;28;96954;-80
2023/08/20 06:09:07;;;;;;;1.42;1.33;;;;;;;28.97;47.62;102132.63;4907759;28;97883;-81
2023/08/20 06:11:36;;;;;;;1.50;1.20;;;;;;;28.98;47.57;102133.50;4905603;28;96606;-80
2023/08/20 06:14:02;;;;;;;1.58;1.35;;;;;;;28.97;47.57;102132.63;4912403;28;96763;-80
2023/08/20 06:16:29;;;;;;;1.48;1.25;;;;;;;28.98;47.46;102125.19;4908407;28;97810;-81
2023/08/20 06:18:57;;;;;;;1.50;1.20;;;;;;;28.97;47.25;102132.63;4895136;28;97486;-80
2023/08/20 06:21:24;;;;;;;2.50;1.30;;;;;;;28.98;47.32;102134.34;4896003;28;98985;-83
2023/08/20 06:23:50;;;;;;;1.30;1.17;;;;;;;28.98;47.29;102134.34;4888423;28;98659;-80
2023/08/20 06:26:17;;;;;;;1.20;1.10;;;;;;;28.98;47.25;102127.97;4894257;28;98314;-80
2023/08/20 06:28:44;;;;;;;2.05;1.58;;;;;;;28.99;47.43;102132.47;4907292;28;97187;-80
2023/08/20 06:31:11;;;;;;;1.88;1.20;;;;;;;28.98;47.17;102131.56;4907133;28;96704;-79
2023/08/20 06:33:38;;;;;;;2.08;1.20;;;;;;;29.00;47.24;102132.25;4905378;28;97852;-81
2023/08/20 06:36:04;;;;;;;1.85;1.20;;;;;;;28.99;47.12;102133.31;4909760;28;97191;-80
2023/08/20 06:38:31;;;;;;;1.38;1.20;;;;;;;29.00;47.56;102136.94;4910770;28;96721;-80
2023/08/20 06:40:57;;;;;;;1.38;1.27;;;;;;;28.99;47.65;102138.00;4911057;28;96948;-80
2023/08/20 06:43:24;;;;;;;1.85;1.23;;;;;;;29.00;47.47;102136.94;4906830;28;97399;-80
2023/08/20 06:45:52;;;;;;;1.85;1.58;;;;;;;29.00;47.33;102136.94;4910152;28;97865;-80
2023/08/20 06:48:20;;;;;;;1.58;1.35;;;;;;;29.01;47.36;102138.66;4910314;28;98597;-80
2023/08/20 06:50:46;;;;;;;2.60;1.30;;;;;;;29.00;47.33;102140.56;4910469;28;97383;-80
2023/08/20 06:53:13;;;;;;;1.70;1.20;;;;;;;29.01;47.27;102142.28;4903497;28;96793;-79
2023/08/20 06:55:39;;;;;;;1.30;1.20;;;;;;;29.02;47.37;102151.44;4905051;28;98350;-80
2023/08/20 06:58:06;;;;;;;1.80;1.40;;;;;;;29.03;47.19;102151.22;4925494;28;96676;-80
2023/08/20 07:00:32;;;;;;;2.33;1.30;;;;;;;29.02;47.12;102156.97;4904671;28;97067;-80
2023/08/20 07:02:59;;;;;;;2.67;1.50;;;;;;;29.02;47.25;102152.28;4908862;28;96908;-80
2023/08/20 07:05:25;;;;;;;2.05;1.70;;;;;;;29.03;47.41;102148.47;4906948;28;96885;-80
2023/08/20 07:07:52;;;;;;;1.90;1.50;;;;;;;29.03;47.40;102144.84;4906657;28;98304;-80
2023/08/20 07:10:19;;;;;;;2.08;1.35;;;;;;;29.03;47.46;102142.94;4905356;28;96673;-80
2023/08/20 07:12:45;;;;;;;2.70;1.30;;;;;;;29.03;47.22;102134.63;4906623;28;96879;-80
2023/08/20 07:15:12;;;;;;;1.55;1.10;;;;;;;29.03;47.25;102140.16;4901480;28;97934;-80
2023/08/20 07:17:38;;;;;;;2.47;1.60;;;;;;;29.04;47.11;102147.41;4910116;28;98211;-80
2023/08/20 07:20:06;;;;;;;2.65;1.30;;;;;;;29.05;47.07;102146.34;4907927;28;96932;-80
2023/08/20 07:22:32;;;;;;;2.05;1.45;;;;;;;29.06;47.16;102147.22;4911389;28;96933;-80
2023/08/20 07:24:59;;;;;;;2.30;1.50;;;;;;;29.06;47.36;102144.44;4907400;28;100447;-80
2023/08/20 07:27:25;;;;;;;2.33;1.40;;;;;;;29.06;47.17;102150.84;4903293;28;96809;-80
2023/08/20 07:29:52;;;;;;;2.15;1.40;;;;;;;29.07;47.24;102146.16;4909717;28;96654;-80
2023/08/20 07:32:18;;;;;;;2.15;1.42;;;;;;;29.06;47.09;102148.06;4909791;28;96993;-80
2023/08/20 07:34:45;;;;;;;1.77;1.20;;;;;;;29.08;47.14;102145.09;4899034;28;96784;-80
2023/08/20 07:37:12;;;;;;;2.05;1.42;;;;;;;29.08;47.31;102148.72;4909738;28;97459;-80
2023/08/20 07:39:40;;;;;;;3.33;1.52;;;;;;;29.08;47.25;102143.19;4905610;28;97490;-81
2023/08/20 07:42:06;;;;;;;1.80;1.35;;;;;;;29.08;47.46;102145.09;4908157;28;97364;-80
2023/08/20 07:44:33;;;;;;;1.42;1.27;;;;;;;29.09;47.33;102144.03;4901702;28;98689;-80
2023/08/20 07:46:59;;;;;;;1.98;1.50;;;;;;;29.09;47.40;102147.66;4909192;28;98336;-80
2023/08/20 07:49:26;;;;;;;2.15;1.40;;;;;;;29.09;47.10;102144.91;4910264;28;96836;-80
2023/08/20 07:51:54;;;;;;;2.92;1.50;;;;;;;29.10;47.14;102148.53;4906419;28;96980;-80
2023/08/20 07:54:21;;;;;;;2.28;1.48;;;;;;;29.12;47.35;102145.56;4908440;28;96813;-81
2023/08/20 07:56:47;;;;;;;1.88;1.27;;;;;;;29.11;47.38;102153.00;4893693;28;96677;-80
2023/08/20 07:59:14;;;;;;;2.45;1.50;;;;;;;29.12;47.37;102159.38;4908045;28;97239;-80
2023/08/20 08:01:40;;;;;;;1.60;1.38;;;;;;;29.12;47.09;102160.25;4909441;28;96760;-80
2023/08/20 08:04:07;;;;;;;1.60;1.30;;;;;;;29.12;47.32;102157.47;4907494;28;97291;-81
2023/08/20 08:06:33;;;;;;;2.15;1.60;;;;;;;29.13;47.21;102163.88;4902391;28;97262;-80
2023/08/20 08:09:19;;;;;;;2.45;1.63;;;;;;;29.14;46.94;102169.19;4903174;28;97119;-80
2023/08/20 08:11:45;;;;;;;1.83;1.35;;;;;;;29.13;46.96;102169.41;4907491;28;96757;-80
2023/08/20 08:14:12;;;;;;;2.50;1.20;;;;;;;29.14;47.32;102166.44;4908968;28;96992;-80
2023/08/20 08:16:38;;;;;;;2.10;1.42;;;;;;;29.15;47.23;102167.28;4908852;28;97923;-80
2023/08/20 08:19:05;;;;;;;1.58;1.20;;;;;;;29.15;47.14;102170.91;4909715;28;96827;-81
2023/08/20 08:21:31;;;;;;;2.28;1.40;;;;;;;29.17;47.11;102176.25;4893718;28;97054;-80
2023/08/20 08:23:58;;;;;;;2.58;1.55;;;;;;;29.17;47.12;102176.25;4910397;28;96853;-80
2023/08/20 08:26:24;;;;;;;1.63;1.33;;;;;;;29.18;47.27;102175.19;4909213;28;98213;-80
2023/08/20 08:28:51;;;;;;;2.08;1.33;;;;;;;29.17;47.39;102179.00;4892918;28;96613;-81
2023/08/20 08:31:17;;;;;;;1.98;1.40;;;;;;;29.18;47.04;102181.56;4893178;28;96946;-80
2023/08/20 08:33:44;;;;;;;1.65;1.30;;;;;;;29.18;47.00;102167.75;4906326;28;97083;-80
2023/08/20 08:36:11;;;;;;;1.70;1.35;;;;;;;29.18;46.94;102181.56;4901266;28;97458;-80
2023/08/20 08:38:38;;;;;;;1.85;1.30;;;;;;;29.19;47.24;102185.19;4906157;28;96766;-80
2023/08/20 08:41:10;;;;;;;1.90;1.23;;;;;;;29.20;47.17;102189.69;4893381;28;97349;-80
2023/08/20 08:43:38;;;;;;;1.90;1.30;;;;;;;29.20;47.04;102192.44;4910503;28;97515;-80
2023/08/20 08:46:07;;;;;;;1.52;1.13;;;;;;;29.19;46.98;102194.34;4910704;28;96783;-80
2023/08/20 08:48:35;;;;;;;2.70;1.40;;;;;;;29.21;47.20;102185.84;4909590;28;96829;-80
2023/08/20 08:51:02;;;;;;;2.03;1.30;;;;;;;29.20;47.10;102193.28;4907361;28;97004;-80
2023/08/20 08:53:30;;;;;;;2.30;1.40;;;;;;;29.21;47.26;102183.94;4909255;28;97071;-80
2023/08/20 08:55:57;;;;;;;1.98;1.50;;;;;;;29.22;47.19;102193.97;4904144;28;96664;-80
2023/08/20 08:58:23;;;;;;;1.77;1.55;;;;;;;29.22;47.18;102191.19;4902136;28;96981;-79
2023/08/20 09:00:50;;;;;;;2.08;1.33;;;;;;;29.23;46.80;102186.50;4902055;28;98079;-80
2023/08/20 09:03:17;;;;;;;2.63;1.58;;;;;;;29.23;46.98;102194.81;4904077;28;98317;-80
2023/08/20 09:05:54;;;;;;;1.77;1.20;;;;;;;29.23;47.20;102192.03;4899300;28;97029;-80
2023/08/20 09:08:27;;;;;;;1.48;1.27;;;;;;;29.23;47.15;102192.91;4905134;28;97750;-80
2023/08/20 09:10:56;;;;;;;1.90;1.48;;;;;;;29.23;47.14;102189.28;4908194;28;97459;-81
2023/08/20 09:13:32;;;;;;;2.00;1.30;;;;;;;29.25;46.92;102195.47;4907933;28;97796;-80
2023/08/20 09:16:02;;;;;;;1.90;1.45;;;;;;;29.24;46.95;102185.47;4908643;28;96951;-81
2023/08/20 09:18:29;;;;;;;2.58;1.50;;;;;;;29.23;46.84;102190.13;4908512;28;96897;-80
2023/08/20 09:20:58;;;;;;;1.35;1.02;;;;;;;29.24;47.29;102193.75;4907688;28;97015;-81
2023/08/20 09:23:29;;;;;;;1.35;1.10;;;;;;;29.25;46.83;102189.94;4911790;28;96964;-80
2023/08/20 09:25:56;;;;;;;1.58;1.30;;;;;;;29.25;46.67;102192.69;4910537;28;97955;-80
2023/08/20 09:28:22;;;;;;;1.83;1.50;;;;;;;29.25;46.54;102187.16;4913864;28;96780;-80
2023/08/20 09:31:01;;;;;;;2.22;1.67;;;;;;;29.26;46.92;102186.09;4908503;28;97032;-80
2023/08/20 09:33:28;;;;;;;2.10;1.30;;;;;;;29.26;46.87;102186.97;4919059;28;96924;-80
2023/08/20 09:35:55;;;;;;;1.40;1.30;;;;;;;29.26;46.97;102186.09;4907985;28;97533;-80
2023/08/20 09:38:23;;;;;;;1.52;1.23;;;;;;;29.27;46.94;102191.44;4910702;28;97386;-80
2023/08/20 09:40:52;;;;;;;1.85;1.30;;;;;;;29.28;46.48;102189.53;4910323;28;96773;-80
2023/08/20 09:43:20;;;;;;;2.65;1.40;;;;;;;29.28;46.89;102192.31;4904145;28;99673;-80
2023/08/20 09:45:47;;;;;;;1.23;1.13;;;;;;;29.28;46.72;102189.53;4907270;28;96843;-80
2023/08/20 09:48:20;;;;;;;2.80;1.58;;;;;;;29.28;46.81;102184.00;4911829;28;96770;-80
2023/08/20 09:50:47;;;;;;;1.88;1.10;;;;;;;29.29;46.87;102188.47;4913220;28;97246;-80
2023/08/20 09:53:26;;;;;;;2.47;1.60;;;;;;;29.29;46.79;102189.34;4913365;28;96646;-80
2023/08/20 09:55:56;;;;;;;1.40;1.20;;;;;;;29.29;46.78;102194.88;4911949;28;97346;-80
2023/08/20 09:58:25;;;;;;;1.60;1.27;;;;;;;29.29;46.75;102194.88;4914061;28;96607;-81
2023/08/20 10:00:52;;;;;;;2.08;1.52;;;;;;;29.29;46.89;102194.00;4895284;28;97395;-81
2023/08/20 10:03:21;;;;;;;1.65;1.33;;;;;;;29.30;46.82;102198.50;4910418;28;96995;-80
2023/08/20 10:05:49;;;;;;;2.75;1.35;;;;;;;29.29;46.65;102200.41;4911255;28;97939;-80
2023/08/20 10:08:17;;;;;;;1.92;1.30;;;;;;;29.29;46.48;102196.78;4911208;28;96735;-80
2023/08/20 10:10:44;;;;;;;1.58;1.30;;;;;;;29.29;46.60;102182.94;4910431;28;96490;-80
2023/08/20 10:13:13;;;;;;;1.92;1.17;;;;;;;29.29;46.63;102196.78;4910809;28;98609;-80
2023/08/20 10:15:40;;;;;;;1.98;1.48;;;;;;;29.30;46.71;102204.03;4909619;28;97000;-80
2023/08/20 10:18:11;;;;;;;2.67;1.40;;;;;;;29.30;46.48;102192.97;4909364;28;96567;-80
2023/08/20 10:20:40;;;;;;;2.50;1.40;;;;;;;29.30;47.10;102193.81;4911535;28;96855;-80
2023/08/20 10:23:07;;;;;;;1.65;1.20;;;;;;;29.30;46.63;102187.41;4909091;28;96794;-80
2023/08/20 10:25:41;;;;;;;2.15;1.10;;;;;;;29.31;46.47;102195.53;4909862;28;97552;-81
2023/08/20 10:28:21;;;;;;;2.53;1.77;;;;;;;29.31;46.75;102198.28;4910318;28;97255;-80
2023/08/20 10:31:05;;;;;;;1.50;1.17;;;;;;;29.29;46.61;102194.88;4893204;28;96943;-80
2023/08/20 10:33:34;;;;;;;1.37;1.07;;;;;;;29.30;46.64;102192.97;4875878;28;99190;-83
2023/08/20 10:36:15;;;;;;;1.58;1.10;;;;;;;29.30;46.58;102191.03;4872314;28;99330;-80
2023/08/20 10:38:44;;;;;;;1.58;1.00;;;;;;;29.31;46.59;102194.66;4891136;28;97429;-83
2023/08/20 10:41:11;;;;;;;1.27;0.95;;;;;;;29.31;46.52;102192.75;4891617;28;97390;-80
2023/08/20 10:43:45;;;;;;;1.48;1.10;;;;;;;29.32;46.45;102191.69;4891558;28;98915;-80
2023/08/20 10:46:20;;;;;;;1.90;1.30;;;;;;;29.31;46.53;102195.53;4895232;28;100056;-80
2023/08/20 10:48:51;;;;;;;1.13;0.90;;;;;;;29.32;46.83;102188.06;4893155;28;97023;-81
2023/08/20 10:51:47;;;;;;;2.05;1.25;;;;;;;29.32;46.54;102197.22;4894290;28;97055;-81
2023/08/20 10:54:14;;;;;;;1.08;0.90;;;;;;;29.31;46.59;102181.69;4892332;28;98840;-80
2023/08/20 10:56:42;;;;;;;1.73;1.13;;;;;;;29.32;46.47;102190.84;4888894;28;97818;-79
2023/08/20 10:59:22;;;;;;;1.20;1.00;;;;;;;29.34;46.30;102199.81;4899068;28;99119;-80
2023/08/20 11:01:54;;;;;;;1.73;1.00;;;;;;;29.33;46.56;102195.31;4909474;28;96798;-80
2023/08/20 11:04:28;;;;;;;1.65;1.10;;;;;;;29.33;46.56;102204.47;4909543;28;96683;-80
2023/08/20 11:06:59;;;;;;;1.33;1.10;;;;;;;29.34;46.67;102197.03;4894448;28;98260;-80
2023/08/20 11:09:28;;;;;;;1.67;1.10;;;;;;;29.33;46.49;102200.84;4911107;28;96916;-82
2023/08/20 11:11:55;;;;;;;1.80;1.10;;;;;;;29.34;46.39;102194.25;4904488;28;96928;-80
2023/08/20 11:14:22;;;;;;;1.40;1.10;;;;;;;29.34;46.64;102199.81;4909919;28;98653;-80
2023/08/20 11:16:49;;;;;;;1.25;1.02;;;;;;;29.34;46.58;102200.66;4910264;28;97256;-80
2023/08/20 11:19:21;;;;;;;1.80;0.90;;;;;;;29.35;46.22;102205.13;4912141;28;96755;-81
2023/08/20 11:21:48;;;;;;;1.55;1.00;;;;;;;29.35;46.17;102198.75;4907162;28;97177;-80
2023/08/20 11:24:15;;;;;;;1.85;1.20;;;;;;;29.35;46.33;102201.50;4911283;28;96711;-80
2023/08/20 11:26:43;;;;;;;2.17;1.20;;;;;;;29.35;46.38;102194.06;4901830;28;96753;-80
2023/08/20 11:29:19;;;;;;;2.13;1.10;;;;;;;29.35;46.27;102193.22;4907536;28;96897;-80